F\v Desperado — FVFQ — position and weather

sailwx.info

Track history (hours):
 
Tides and Currents Weather Stations Pressure Air Temp Water Temp Dewpoint Dewpoint Depression Visibility Wind Speed Wind Dir Waves Ship Positions

F\v Desperado

Last reported at 2015-Apr-27 03:26 UTC. Time now 2015-Apr-28 16:00 UTC.
Position N 46°22' W 002°12'.

Type: Fishing. MMSI: 228312000.

Date/timePositionNaut miles runAvg speedWind from/ knotsBaromVisibWave heightAir tempDewpointWater temp
2015-Apr-27 03:26N 46°22' W 002°12'7 8.5
2015-Apr-27 02:33N 46°25' W 002°01'8 8.5
2015-Apr-27 01:33N 46°27' W 001°49'3 3.2
2015-Apr-27 00:33N 46°30' W 001°47'1 1.1
2015-Apr-26 23:33N 46°29' W 001°47'8 7.7
2015-Apr-26 22:33N 46°26' W 001°57'23 0.6
2015-Apr-25 04:33N 46°14' W 002°27'8 7.9
2015-Apr-25 03:33N 46°18' W 002°16'8 8.2
2015-Apr-25 02:33N 46°22' W 002°06'8 8.5
2015-Apr-25 01:33N 46°25' W 001°55'7 6.9
2015-Apr-25 00:33N 46°30' W 001°47'2 2.0
2015-Apr-24 23:33N 46°28' W 001°48'42 7.6
2015-Apr-24 18:05N 46°08' W 002°41'3 3.2
2015-Apr-24 17:12N 46°10' W 002°38'2 1.3
2015-Apr-24 15:29N 46°09' W 002°41'1 0.9
2015-Apr-24 14:33N 46°08' W 002°41'2 0.7
2015-Apr-24 12:10N 46°09' W 002°39'24 2.1
2015-Apr-24 00:29N 46°23' W 002°10'6 6.6
2015-Apr-23 23:33N 46°24' W 002°02'6 6.4
2015-Apr-23 22:33N 46°26' W 001°53'5 5.2
2015-Apr-23 21:33N 46°30' W 001°47'0 0.0
2015-Apr-23 20:33N 46°30' W 001°47'6 6.1
2015-Apr-23 19:33N 46°26' W 001°54'  
2015-Apr-21 06:33N 46°24' W 002°02'8 8.2
2015-Apr-21 05:33N 46°27' W 001°51'4 4.1
2015-Apr-21 04:33N 46°30' W 001°47'0 0.0
2015-Apr-21 03:33N 46°30' W 001°47'0 0.0
2015-Apr-21 02:33N 46°30' W 001°47'0 0.2
2015-Apr-21 01:33N 46°30' W 001°47'2 2.0
2015-Apr-21 00:33N 46°28' W 001°48'8 8.3
2015-Apr-20 23:33N 46°23' W 001°58'32 2.4
2015-Apr-20 10:13N 46°08' W 002°38'  
2015-Apr-18 04:31N 46°21' W 002°09'7 7.0
2015-Apr-18 03:33N 46°24' W 002°00'7 6.7
2015-Apr-18 02:33N 46°26' W 001°51'5 4.5
2015-Apr-18 01:33N 46°30' W 001°47'0 0.0
2015-Apr-18 00:33N 46°30' W 001°47'1 1.3
2015-Apr-17 23:33N 46°29' W 001°47'8 7.7
2015-Apr-17 22:33N 46°24' W 001°56'  
Track history (hours):
 
Tides and Currents Weather Stations Pressure Air Temp Water Temp Dewpoint Dewpoint Depression Visibility Wind Speed Wind Dir Waves Ship Positions

F\v Desperado

Last reported at 2015-Apr-27 03:26 UTC. Time now 2015-Apr-28 16:00 UTC.
Position N 46°22' W 002°12'.

Type: Fishing. MMSI: 228312000.

Date/timePositionNaut miles runAvg speedWind from/ knotsBaromVisibWave heightAir tempDewpointWater temp
2015-Apr-27 03:26N 46°22' W 002°12'7 8.5
2015-Apr-27 02:33N 46°25' W 002°01'8 8.5
2015-Apr-27 01:33N 46°27' W 001°49'3 3.2
2015-Apr-27 00:33N 46°30' W 001°47'1 1.1
2015-Apr-26 23:33N 46°29' W 001°47'8 7.7
2015-Apr-26 22:33N 46°26' W 001°57'23 0.6
2015-Apr-25 04:33N 46°14' W 002°27'8 7.9
2015-Apr-25 03:33N 46°18' W 002°16'8 8.2
2015-Apr-25 02:33N 46°22' W 002°06'8 8.5
2015-Apr-25 01:33N 46°25' W 001°55'7 6.9
2015-Apr-25 00:33N 46°30' W 001°47'2 2.0
2015-Apr-24 23:33N 46°28' W 001°48'42 7.6
2015-Apr-24 18:05N 46°08' W 002°41'3 3.2
2015-Apr-24 17:12N 46°10' W 002°38'2 1.3
2015-Apr-24 15:29N 46°09' W 002°41'1 0.9
2015-Apr-24 14:33N 46°08' W 002°41'2 0.7
2015-Apr-24 12:10N 46°09' W 002°39'24 2.1
2015-Apr-24 00:29N 46°23' W 002°10'6 6.6
2015-Apr-23 23:33N 46°24' W 002°02'6 6.4
2015-Apr-23 22:33N 46°26' W 001°53'5 5.2
2015-Apr-23 21:33N 46°30' W 001°47'0 0.0
2015-Apr-23 20:33N 46°30' W 001°47'6 6.1
2015-Apr-23 19:33N 46°26' W 001°54'  
2015-Apr-21 06:33N 46°24' W 002°02'8 8.2
2015-Apr-21 05:33N 46°27' W 001°51'4 4.1
2015-Apr-21 04:33N 46°30' W 001°47'0 0.0
2015-Apr-21 03:33N 46°30' W 001°47'0 0.0
2015-Apr-21 02:33N 46°30' W 001°47'0 0.2
2015-Apr-21 01:33N 46°30' W 001°47'2 2.0
2015-Apr-21 00:33N 46°28' W 001°48'8 8.3
2015-Apr-20 23:33N 46°23' W 001°58'32 2.4
2015-Apr-20 10:13N 46°08' W 002°38'  
2015-Apr-18 04:31N 46°21' W 002°09'7 7.0
2015-Apr-18 03:33N 46°24' W 002°00'7 6.7
2015-Apr-18 02:33N 46°26' W 001°51'5 4.5
2015-Apr-18 01:33N 46°30' W 001°47'0 0.0
2015-Apr-18 00:33N 46°30' W 001°47'1 1.3
2015-Apr-17 23:33N 46°29' W 001°47'8 7.7
2015-Apr-17 22:33N 46°24' W 001°56'  

Dump ship's entire track history